createdAt,value
2023-03-13T00:03:19.969Z,2.25
2023-03-13T00:08:21.602Z,1.83
2023-03-13T00:13:23.437Z,2.28
2023-03-13T00:18:25.106Z,2.65
2023-03-13T00:23:26.934Z,2.40
2023-03-13T00:28:32.321Z,2.20
2023-03-13T00:33:39.582Z,2.42
2023-03-13T00:38:41.547Z,3.08
2023-03-13T00:43:44.055Z,2.55
2023-03-13T00:48:47.773Z,1.80
2023-03-13T00:53:49.954Z,1.90
2023-03-13T00:58:51.736Z,2.47
2023-03-13T01:03:55.745Z,2.47
2023-03-13T01:08:58.238Z,2.03
2023-03-13T01:14:02.457Z,2.10
2023-03-13T01:19:07.385Z,2.08
2023-03-13T01:24:09.406Z,1.95
2023-03-13T01:29:11.624Z,1.85
2023-03-13T01:34:14.324Z,2.38
2023-03-13T01:39:16.477Z,3.03
2023-03-13T01:44:24.371Z,1.83
2023-03-13T01:49:33.588Z,1.80
2023-03-13T01:54:47.864Z,1.75
2023-03-13T01:59:56.494Z,2.22
2023-03-13T02:05:01.936Z,1.95
2023-03-13T02:10:04.093Z,1.83
2023-03-13T02:15:14.568Z,1.77
2023-03-13T02:20:22.281Z,2.78
2023-03-13T02:25:25.811Z,1.85
2023-03-13T02:30:31.984Z,1.75
2023-03-13T02:35:33.779Z,4.43
2023-03-13T02:40:40.318Z,1.40
2023-03-13T02:45:43.277Z,1.42
2023-03-13T02:50:45.945Z,1.88
2023-03-13T02:55:47.662Z,2.40
2023-03-13T03:00:49.711Z,2.15
2023-03-13T03:05:51.884Z,1.90
2023-03-13T03:10:54.035Z,1.85
2023-03-13T03:15:57.257Z,1.75
2023-03-13T03:20:58.994Z,1.95
2023-03-13T03:26:01.706Z,2.60
2023-03-13T03:31:07.357Z,1.90
2023-03-13T03:36:13.825Z,1.65
2023-03-13T03:41:16.348Z,2.08
2023-03-13T03:46:18.843Z,2.00
2023-03-13T03:51:21.390Z,1.60
2023-03-13T03:56:23.401Z,1.80
2023-03-13T04:01:29.746Z,1.75
2023-03-13T04:06:31.458Z,2.20
2023-03-13T04:11:33.589Z,1.50
2023-03-13T04:16:35.802Z,1.27
2023-03-13T04:21:39.722Z,1.67
2023-03-13T04:26:48.540Z,1.70
2023-03-13T04:31:51.581Z,1.52
2023-03-13T04:36:55.781Z,1.42
2023-03-13T04:42:15.717Z,1.55
2023-03-13T04:47:40.580Z,2.00
2023-03-13T04:53:05.437Z,1.42
2023-03-13T04:58:29.846Z,1.88
2023-03-13T05:03:49.819Z,1.92
2023-03-13T05:09:14.736Z,1.55
2023-03-13T05:14:31.670Z,1.80
2023-03-13T05:19:49.264Z,1.70
2023-03-13T05:24:58.492Z,1.52
2023-03-13T05:30:19.624Z,1.85
2023-03-13T05:41:15.308Z,1.13
2023-03-13T05:46:35.874Z,1.55
2023-03-13T05:51:57.808Z,1.92
2023-03-13T05:57:02.229Z,1.10
2023-03-13T06:02:20.788Z,1.25
2023-03-13T06:07:23.647Z,2.70
2023-03-13T06:12:25.669Z,1.77
2023-03-13T06:17:27.736Z,1.33
2023-03-13T06:22:30.791Z,4.00
2023-03-13T06:27:32.604Z,1.90
2023-03-13T06:32:34.641Z,1.30
2023-03-13T06:37:36.858Z,1.38
2023-03-13T06:42:38.779Z,1.58
2023-03-13T06:47:40.533Z,1.30
2023-03-13T06:52:44.264Z,1.98
2023-03-13T06:57:50.834Z,2.22
2023-03-13T07:02:54.036Z,2.92
2023-03-13T07:07:55.731Z,1.65
2023-03-13T07:12:57.469Z,2.63
2023-03-13T07:17:59.192Z,1.45
2023-03-13T07:23:00.831Z,1.35
2023-03-13T07:28:02.548Z,1.13
2023-03-13T07:33:04.228Z,1.15
2023-03-13T07:38:06.375Z,2.22
2023-03-13T07:43:07.975Z,1.13
2023-03-13T07:48:10.128Z,1.70
2023-03-13T07:53:14.227Z,2.15
2023-03-13T07:58:17.427Z,1.13
2023-03-13T08:03:23.913Z,1.38
2023-03-13T08:08:25.683Z,2.65
2023-03-13T08:13:27.354Z,1.50
2023-03-13T08:18:34.916Z,1.30
2023-03-13T08:23:37.648Z,2.53
2023-03-13T08:28:39.550Z,2.03
2023-03-13T08:33:42.999Z,1.55
2023-03-13T08:38:46.815Z,1.77
2023-03-13T08:43:48.814Z,2.22
2023-03-13T08:48:54.666Z,1.63
2023-03-13T08:53:56.718Z,1.88
2023-03-13T08:59:00.181Z,1.13
2023-03-13T09:04:05.759Z,1.77
2023-03-13T09:09:08.486Z,1.20
2023-03-13T09:14:10.903Z,1.13
2023-03-13T09:19:13.175Z,1.05
2023-03-13T09:24:15.852Z,1.10
2023-03-13T09:29:17.530Z,1.15
2023-03-13T09:34:19.157Z,0.88
2023-03-13T09:39:21.222Z,0.50
2023-03-13T09:44:30.647Z,0.80
2023-03-13T09:49:43.093Z,1.02
2023-03-13T09:54:57.426Z,0.70
2023-03-13T10:00:12.594Z,0.60
2023-03-13T10:05:21.830Z,0.60
2023-03-13T10:15:37.306Z,0.50
2023-03-13T10:20:40.648Z,0.73
2023-03-13T10:25:42.504Z,0.77
2023-03-13T10:30:52.237Z,0.30
2023-03-13T10:36:11.416Z,1.42
2023-03-13T10:41:37.599Z,0.52
2023-03-13T10:46:43.943Z,0.60
2023-03-13T10:51:48.812Z,0.20
2023-03-13T10:57:08.341Z,0.30
2023-03-13T11:02:38.448Z,0.30
2023-03-13T11:07:40.568Z,0.90
2023-03-13T11:12:53.956Z,0.47
2023-03-13T11:18:01.566Z,0.30
2023-03-13T11:23:09.534Z,0.75
2023-03-13T11:28:26.737Z,0.22
2023-03-13T11:33:53.428Z,0.30
2023-03-13T11:39:12.641Z,0.43
2023-03-13T11:45:02.254Z,0.43
2023-03-13T11:50:13.212Z,0.77
2023-03-13T11:55:25.928Z,0.22
2023-03-13T12:00:38.410Z,0.28
2023-03-13T12:05:54.290Z,0.90
2023-03-13T12:11:26.973Z,0.40
2023-03-13T12:16:43.774Z,0.32
2023-03-13T12:21:50.812Z,0.43
2023-03-13T12:26:58.707Z,0.32
2023-03-13T12:32:07.390Z,0.32
2023-03-13T12:37:12.027Z,0.40
2023-03-13T12:42:30.025Z,0.40
2023-03-13T12:47:55.337Z,0.25
2023-03-13T12:53:09.087Z,0.68
2023-03-13T12:58:30.579Z,0.68
2023-03-13T13:03:38.892Z,0.80
2023-03-13T13:09:02.718Z,0.40
2023-03-13T13:14:24.352Z,0.70
2023-03-13T13:19:25.994Z,0.50
2023-03-13T13:24:40.799Z,1.40
2023-03-13T13:29:42.425Z,0.57
2023-03-13T13:34:53.291Z,0.30
2023-03-13T13:40:15.320Z,0.93
2023-03-13T13:45:17.021Z,0.50
2023-03-13T13:50:24.104Z,0.43
2023-03-13T13:55:32.904Z,0.40
2023-03-13T14:01:01.741Z,0.60
2023-03-13T14:06:15.800Z,0.43
2023-03-13T14:11:38.337Z,0.45
2023-03-13T14:16:44.023Z,0.55
2023-03-13T14:21:45.950Z,0.22
2023-03-13T14:26:47.622Z,0.50
2023-03-13T14:31:57.656Z,0.35
2023-03-13T14:37:16.916Z,0.68
2023-03-13T14:42:19.787Z,0.60
2023-03-13T14:47:27.416Z,0.47
2023-03-13T14:52:29.749Z,0.60
2023-03-13T14:57:32.216Z,0.93
2023-03-13T15:02:34.294Z,0.40
2023-03-13T15:07:42.894Z,0.50
2023-03-13T15:12:45.382Z,0.40
2023-03-13T15:17:47.157Z,1.20
2023-03-13T15:22:49.398Z,0.50
2023-03-13T15:27:51.191Z,1.38
2023-03-13T15:32:52.972Z,0.47
2023-03-13T15:37:56.048Z,0.80
2023-03-13T15:42:59.297Z,0.60
2023-03-13T15:48:06.181Z,0.43
2023-03-13T15:53:17.531Z,0.40
2023-03-13T15:58:26.472Z,0.40
2023-03-13T16:03:29.051Z,0.30
2023-03-13T16:08:36.266Z,0.50
2023-03-13T16:13:38.769Z,0.38
2023-03-13T16:18:40.767Z,0.40
2023-03-13T16:23:42.586Z,0.47
2023-03-13T16:28:44.909Z,0.60
2023-03-13T16:33:47.734Z,0.55
2023-03-13T16:38:50.700Z,0.57
2023-03-13T16:43:52.827Z,0.73
2023-03-13T16:48:57.609Z,1.55
2023-03-13T16:54:03.914Z,0.50
2023-03-13T16:59:08.993Z,0.70
2023-03-13T17:04:10.878Z,0.57
2023-03-13T17:09:15.697Z,0.50
2023-03-13T17:14:17.409Z,0.98
2023-03-13T17:19:19.126Z,0.82
2023-03-13T17:24:20.828Z,0.82
2023-03-13T17:29:23.871Z,1.42
2023-03-13T17:34:27.670Z,0.70
2023-03-13T17:39:29.321Z,0.90
2023-03-13T17:44:30.964Z,1.02
2023-03-13T17:49:32.706Z,1.67
2023-03-13T17:54:34.393Z,0.90
2023-03-13T17:59:36.140Z,0.85
2023-03-13T18:04:37.993Z,0.90
2023-03-13T18:09:39.799Z,1.13
2023-03-13T18:14:41.907Z,1.13
2023-03-13T18:19:44.285Z,0.80
2023-03-13T18:24:46.171Z,0.77
2023-03-13T18:29:49.171Z,0.68
2023-03-13T18:34:51.261Z,0.95
2023-03-13T18:39:55.741Z,1.55
2023-03-13T18:44:58.740Z,0.90
2023-03-13T18:50:01.076Z,0.85
2023-03-13T18:55:02.842Z,0.60
2023-03-13T19:00:14.932Z,1.05
2023-03-13T19:05:17.849Z,1.13
2023-03-13T19:10:26.494Z,1.15
2023-03-13T19:15:29.252Z,0.80
2023-03-13T19:20:30.975Z,0.75
2023-03-13T19:25:34.571Z,0.70
2023-03-13T19:30:36.392Z,0.88
2023-03-13T19:35:38.224Z,1.70
2023-03-13T19:40:39.988Z,1.85
2023-03-13T19:45:41.915Z,3.63
2023-03-13T19:50:44.225Z,1.90
2023-03-13T19:55:46.248Z,0.98
2023-03-13T20:00:47.995Z,1.00
2023-03-13T20:05:51.406Z,1.20
2023-03-13T20:10:53.268Z,2.10
2023-03-13T20:15:57.746Z,0.73
2023-03-13T20:20:59.836Z,0.90
2023-03-13T20:26:09.907Z,0.43
2023-03-13T20:31:14.329Z,0.30
2023-03-13T20:36:19.332Z,0.40
2023-03-13T20:41:24.910Z,1.35
2023-03-13T20:46:27.081Z,0.32
2023-03-13T20:51:29.269Z,0.88
2023-03-13T20:56:31.352Z,0.38
2023-03-13T21:01:33.368Z,0.40
2023-03-13T21:06:35.161Z,0.50
2023-03-13T21:11:36.901Z,1.23
2023-03-13T21:16:38.619Z,2.10
2023-03-13T21:21:40.351Z,2.25
2023-03-13T21:26:42.038Z,0.50
2023-03-13T21:31:43.769Z,0.50
2023-03-13T21:36:45.494Z,0.32
2023-03-13T21:41:47.210Z,0.35
2023-03-13T21:46:49.028Z,0.30
2023-03-13T21:51:51.130Z,0.30
2023-03-13T21:56:53.412Z,0.40
2023-03-13T22:01:55.284Z,0.50
2023-03-13T22:06:57.094Z,0.90
2023-03-13T22:11:58.878Z,0.57
2023-03-13T22:17:00.545Z,0.60
2023-03-13T22:22:02.349Z,0.93
2023-03-13T22:27:04.314Z,0.45
2023-03-13T22:32:06.072Z,0.57
2023-03-13T22:37:07.760Z,0.40
2023-03-13T22:42:09.479Z,0.30
2023-03-13T22:47:11.148Z,0.80
2023-03-13T22:52:12.832Z,1.55
2023-03-13T22:57:14.456Z,0.90
2023-03-13T23:02:16.090Z,0.43
2023-03-13T23:07:17.962Z,0.47
2023-03-13T23:12:19.665Z,0.50
2023-03-13T23:17:21.356Z,0.50
2023-03-13T23:22:28.092Z,0.60
2023-03-13T23:27:29.772Z,0.60
2023-03-13T23:32:36.680Z,0.82
2023-03-13T23:37:38.642Z,0.65
2023-03-13T23:42:40.382Z,0.65
2023-03-13T23:47:43.953Z,0.50
2023-03-13T23:52:45.924Z,0.50
2023-03-13T23:57:50.817Z,0.43
